Time;durP1;ratioP1;P1;durP2;ratioP2;P2;SDS_P1;SDS_P2;PMS_P1;PMS_P2;Temp;Humidity;BMP_temperature;BMP_pressure;BME280_temperature;BME280_humidity;BME280_pressure;Samples;Min_cycle;Max_cycle;Signal;HPM_P1;HPM_P2
2023/07/03 00:01:16;;;;;;;7.50;2.60;;;23.20;46.00;;;;;;4993862;28;20089;-73
2023/07/03 00:03:43;;;;;;;6.60;2.92;;;23.10;46.00;;;;;;4993961;28;20061;-74
2023/07/03 00:06:09;;;;;;;9.27;2.78;;;23.20;46.10;;;;;;4994082;28;20389;-74
2023/07/03 00:08:35;;;;;;;9.27;2.80;;;23.10;46.00;;;;;;4994105;28;20085;-73
2023/07/03 00:11:02;;;;;;;6.80;2.50;;;23.10;46.00;;;;;;4994119;28;20030;-74
2023/07/03 00:13:29;;;;;;;9.13;2.90;;;23.10;46.00;;;;;;4994046;28;20534;-73
2023/07/03 00:15:59;;;;;;;11.38;3.13;;;23.10;46.10;;;;;;4993600;28;20535;-72
2023/07/03 00:18:26;;;;;;;9.88;2.53;;;23.10;46.10;;;;;;4993927;28;20036;-73
2023/07/03 00:20:54;;;;;;;6.93;2.58;;;23.10;46.10;;;;;;4994307;28;20022;-76
2023/07/03 00:23:21;;;;;;;8.63;2.72;;;23.10;46.10;;;;;;4993718;28;20029;-77
2023/07/03 00:25:48;;;;;;;8.07;2.58;;;23.10;46.10;;;;;;4976588;28;20030;-77
2023/07/03 00:28:14;;;;;;;7.35;2.00;;;23.10;46.20;;;;;;4993345;28;20054;-77
2023/07/03 00:30:40;;;;;;;8.30;2.58;;;23.10;46.20;;;;;;4993896;28;20038;-77
2023/07/03 00:33:07;;;;;;;8.93;2.83;;;23.10;46.80;;;;;;4993602;28;20088;-77
2023/07/03 00:35:33;;;;;;;7.03;2.30;;;23.10;46.20;;;;;;4992987;28;20026;-76
2023/07/03 00:37:59;;;;;;;8.65;2.63;;;23.10;46.30;;;;;;4993604;28;20373;-76
2023/07/03 00:40:25;;;;;;;9.75;2.83;;;23.00;46.20;;;;;;4993524;28;20022;-77
2023/07/03 00:42:52;;;;;;;12.70;3.55;;;23.00;46.20;;;;;;4993471;28;20031;-77
2023/07/03 00:45:19;;;;;;;7.40;2.63;;;23.00;46.20;;;;;;4993323;28;20385;-76
2023/07/03 00:47:45;;;;;;;9.32;2.88;;;23.00;46.20;;;;;;4993350;28;20418;-77
2023/07/03 00:50:12;;;;;;;7.00;2.42;;;23.00;46.20;;;;;;4993616;28;20485;-77
2023/07/03 00:52:39;;;;;;;6.30;2.45;;;23.00;46.30;;;;;;4991732;28;20033;-77
2023/07/03 00:55:05;;;;;;;8.70;2.50;;;23.00;46.40;;;;;;4993037;28;20122;-76
2023/07/03 00:57:31;;;;;;;7.32;2.42;;;23.00;46.30;;;;;;4992799;28;20034;-77
2023/07/03 00:59:57;;;;;;;8.23;2.85;;;23.00;46.30;;;;;;4991581;28;20184;-73
2023/07/03 01:02:36;;;;;;;6.50;2.50;;;23.00;46.40;;;;;;4992832;28;20543;-76
2023/07/03 01:05:23;;;;;;;7.80;2.72;;;23.00;46.40;;;;;;4992895;28;20057;-76
2023/07/03 01:07:51;;;;;;;5.65;2.40;;;22.90;46.40;;;;;;4993086;28;20022;-76
2023/07/03 01:10:20;;;;;;;9.27;2.88;;;23.00;46.50;;;;;;4992714;28;20018;-76
2023/07/03 01:12:56;;;;;;;10.48;3.05;;;22.90;46.50;;;;;;4992787;28;20057;-78
2023/07/03 01:15:27;;;;;;;7.90;2.38;;;22.90;46.50;;;;;;4992601;28;20034;-76
2023/07/03 01:17:55;;;;;;;9.25;3.08;;;22.90;46.50;;;;;;4992471;28;20034;-76
2023/07/03 01:20:23;;;;;;;8.93;2.72;;;22.90;47.20;;;;;;4992643;28;20429;-73
2023/07/03 01:23:12;;;;;;;10.07;3.00;;;22.90;46.50;;;;;;4992336;28;20026;-74
2023/07/03 01:25:42;;;;;;;9.38;3.08;;;22.90;46.60;;;;;;4992461;28;20031;-74
2023/07/03 01:28:11;;;;;;;8.40;2.45;;;22.90;46.60;;;;;;4990925;28;20053;-74
2023/07/03 01:30:40;;;;;;;8.43;2.60;;;22.90;46.60;;;;;;4990981;28;20026;-73
2023/07/03 01:33:08;;;;;;;9.88;2.65;;;22.90;46.60;;;;;;4992384;28;20025;-73
2023/07/03 01:35:34;;;;;;;9.15;2.58;;;22.80;64.60;;;;;;4992749;28;20022;-73
2023/07/03 01:38:01;;;;;;;9.32;3.25;;;22.90;46.70;;;;;;4992208;28;20034;-73
2023/07/03 01:40:27;;;;;;;7.60;3.13;;;22.90;46.80;;;;;;4992287;28;20022;-73
2023/07/03 01:42:55;;;;;;;7.63;2.78;;;22.80;46.70;;;;;;4992224;28;20054;-72
2023/07/03 01:45:20;;;;;;;8.48;3.03;;;22.90;46.80;;;;;;4992256;28;20049;-73
2023/07/03 01:47:47;;;;;;;6.93;2.42;;;22.80;46.70;;;;;;4991590;28;20428;-73
2023/07/03 01:50:23;;;;;;;7.63;2.47;;;22.80;46.80;;;;;;4992416;28;20029;-73
2023/07/03 01:53:00;;;;;;;9.35;2.85;;;22.80;46.90;;;;;;4992422;28;20409;-73
2023/07/03 01:55:45;;;;;;;8.07;2.38;;;22.80;46.90;;;;;;4992353;28;20105;-72
2023/07/03 01:58:16;;;;;;;8.90;3.08;;;22.80;46.90;;;;;;4992141;28;20392;-73
2023/07/03 02:01:16;;;;;;;7.78;2.88;;;22.80;47.00;;;;;;4991993;28;20026;-72
2023/07/03 02:03:52;;;;;;;8.65;2.53;;;22.80;47.00;;;;;;4988416;28;20034;-74
2023/07/03 02:06:29;;;;;;;9.10;3.10;;;22.80;47.00;;;;;;4990735;28;20026;-76
2023/07/03 02:08:55;;;;;;;7.72;2.70;;;22.80;47.10;;;;;;4991997;28;20034;-77
2023/07/03 02:11:23;;;;;;;7.78;2.90;;;22.70;47.00;;;;;;4991911;28;20072;-77
2023/07/03 02:13:49;;;;;;;10.13;2.83;;;22.80;47.20;;;;;;4992003;28;20688;-77
2023/07/03 02:16:15;;;;;;;12.65;2.92;;;22.70;47.10;;;;;;4991981;28;20084;-77
2023/07/03 02:18:49;;;;;;;9.90;2.85;;;22.80;47.20;;;;;;4991854;28;20142;-77
2023/07/03 02:21:15;;;;;;;8.43;3.17;;;22.70;47.10;;;;;;4991845;28;20030;-76
2023/07/03 02:23:42;;;;;;;8.65;2.60;;;22.80;47.90;;;;;;4991968;28;20026;-76
2023/07/03 02:26:09;;;;;;;7.63;3.05;;;22.70;47.20;;;;;;4991718;28;20019;-76
2023/07/03 02:28:35;;;;;;;8.75;2.92;;;22.70;47.20;;;;;;4991840;28;20033;-76
2023/07/03 02:31:01;;;;;;;10.23;3.00;;;22.70;47.20;;;;;;4991896;28;20366;-76
2023/07/03 02:33:27;;;;;;;10.82;3.33;;;22.70;47.20;;;;;;4992429;28;20037;-76
2023/07/03 02:35:52;;;;;;;11.05;3.15;;;22.80;47.20;;;;;;4991862;28;20025;-76
2023/07/03 02:38:18;;;;;;;10.00;3.17;;;22.70;47.20;;;;;;4991761;28;20041;-77
2023/07/03 02:40:44;;;;;;;11.43;3.45;;;22.70;47.20;;;;;;4991969;28;20198;-77
2023/07/03 02:43:10;;;;;;;9.50;3.20;;;22.70;47.30;;;;;;4974707;28;20041;-77
2023/07/03 02:45:38;;;;;;;10.02;3.33;;;22.70;47.30;;;;;;4990425;28;20030;-76
2023/07/03 02:48:06;;;;;;;7.50;2.88;;;22.70;47.40;;;;;;4974642;28;20049;-77
2023/07/03 02:50:32;;;;;;;10.02;3.10;;;22.60;47.30;;;;;;4974714;28;20033;-76
2023/07/03 02:52:58;;;;;;;9.02;3.08;;;22.70;47.50;;;;;;4974545;28;20037;-76
2023/07/03 02:55:24;;;;;;;8.75;2.80;;;22.60;47.40;;;;;;4990664;28;20224;-76
2023/07/03 02:57:51;;;;;;;11.18;3.45;;;22.60;64.60;;;;;;4974689;28;20044;-77
2023/07/03 03:00:17;;;;;;;7.70;2.47;;;22.60;47.50;;;;;;4978226;28;20061;-76
2023/07/03 03:02:44;;;;;;;12.70;3.30;;;22.60;47.50;;;;;;4978491;28;20034;-76
2023/07/03 03:05:13;;;;;;;9.98;3.13;;;22.70;47.50;;;;;;4977742;28;20392;-75
2023/07/03 03:07:39;;;;;;;9.35;2.92;;;22.60;47.50;;;;;;4962390;28;20550;-76
2023/07/03 03:10:06;;;;;;;7.15;3.35;;;22.60;47.50;;;;;;4995224;28;20125;-76
2023/07/03 03:12:32;;;;;;;10.63;2.92;;;22.60;47.40;;;;;;4995514;28;20393;-76
2023/07/03 03:14:58;;;;;;;8.75;2.75;;;22.60;48.10;;;;;;4995340;28;20018;-76
2023/07/03 03:17:24;;;;;;;8.43;2.45;;;22.60;47.40;;;;;;4995110;28;20070;-76
2023/07/03 03:19:50;;;;;;;11.00;2.88;;;22.60;47.50;;;;;;4995207;28;20023;-76
2023/07/03 03:22:17;;;;;;;8.32;2.25;;;22.60;47.50;;;;;;4994949;28;20539;-76
2023/07/03 03:24:43;;;;;;;9.05;2.97;;;22.60;47.50;;;;;;4995146;28;20094;-77
2023/07/03 03:27:09;;;;;;;8.40;2.70;;;22.50;47.60;;;;;;4994645;28;20054;-76
2023/07/03 03:29:36;;;;;;;9.20;2.42;;;22.50;47.50;;;;;;4995524;28;20038;-76
2023/07/03 03:32:03;;;;;;;4.97;2.40;;;22.60;47.70;;;;;;4995135;28;20106;-77
2023/07/03 03:34:29;;;;;;;11.20;2.97;;;22.60;47.60;;;;;;4994946;28;20411;-76
2023/07/03 03:36:56;;;;;;;10.55;2.70;;;22.50;47.60;;;;;;4995099;28;20037;-76
2023/07/03 03:39:22;;;;;;;6.93;2.50;;;22.60;47.70;;;;;;4994742;28;20014;-76
2023/07/03 03:41:48;;;;;;;6.95;2.72;;;22.50;47.60;;;;;;4995013;28;20026;-73
2023/07/03 03:44:14;;;;;;;8.90;2.60;;;22.60;47.60;;;;;;4994585;28;20035;-72
2023/07/03 03:46:41;;;;;;;5.18;2.55;;;22.60;47.60;;;;;;4994385;28;20026;-72
2023/07/03 03:49:09;;;;;;;9.50;2.70;;;22.50;47.70;;;;;;4994056;28;20027;-73
2023/07/03 03:51:35;;;;;;;7.97;2.67;;;22.50;47.60;;;;;;4994051;28;20031;-73
2023/07/03 03:54:01;;;;;;;7.32;2.50;;;22.50;47.60;;;;;;4994121;28;20481;-72
2023/07/03 03:56:27;;;;;;;10.50;2.70;;;22.50;47.60;;;;;;4993983;28;20026;-73
2023/07/03 03:58:53;;;;;;;7.47;2.42;;;22.50;47.70;;;;;;4994967;28;20014;-77
2023/07/03 04:03:55;;;;;;;6.00;2.58;;;24.80;48.90;;;;;;1342477;26;20062;-77
2023/07/03 04:06:21;;;;;;;6.55;2.53;;;22.50;47.60;;;;;;5014074;28;20030;-77
2023/07/03 04:08:47;;;;;;;6.70;2.15;;;22.40;47.70;;;;;;5013587;28;20102;-76
2023/07/03 04:11:13;;;;;;;7.85;2.20;;;22.40;47.80;;;;;;5012642;28;20110;-76
2023/07/03 04:13:39;;;;;;;5.35;2.53;;;22.40;47.60;;;;;;5013534;28;20014;-76
2023/07/03 04:16:05;;;;;;;6.88;2.40;;;22.40;47.60;;;;;;5013422;28;20018;-76
2023/07/03 04:18:31;;;;;;;5.28;2.33;;;22.40;47.70;;;;;;5013794;28;20030;-76
2023/07/03 04:20:59;;;;;;;7.13;2.22;;;22.40;47.70;;;;;;5013784;28;20380;-78
2023/07/03 04:23:25;;;;;;;7.30;2.40;;;22.40;47.60;;;;;;5013901;28;20048;-76
2023/07/03 04:25:52;;;;;;;5.65;2.30;;;22.40;47.70;;;;;;5012460;28;20037;-77
2023/07/03 04:28:20;;;;;;;7.00;2.13;;;22.40;47.60;;;;;;5013784;28;20033;-76
2023/07/03 04:30:47;;;;;;;7.07;2.20;;;22.40;47.60;;;;;;5013319;28;20033;-76
2023/07/03 04:33:13;;;;;;;4.30;1.90;;;;;;;;;;5013305;28;20022;-76
2023/07/03 04:35:39;;;;;;;8.15;2.70;;;22.40;47.10;;;;;;5013636;28;20057;-76
2023/07/03 04:38:05;;;;;;;6.50;2.33;;;;;;;;;;5013271;28;20045;-76
2023/07/03 04:40:31;;;;;;;6.72;2.40;;;22.40;47.10;;;;;;5013397;28;20033;-77
2023/07/03 04:42:57;;;;;;;5.30;2.30;;;22.40;47.70;;;;;;5012040;28;20025;-76
2023/07/03 04:45:24;;;;;;;5.28;2.38;;;22.30;47.60;;;;;;5011782;28;20022;-77
2023/07/03 04:47:51;;;;;;;7.18;2.15;;;22.40;47.70;;;;;;5013140;28;20026;-73
2023/07/03 04:50:17;;;;;;;8.43;2.42;;;22.40;47.70;;;;;;5012872;28;20100;-73
2023/07/03 04:52:45;;;;;;;4.78;2.00;;;22.30;47.70;;;;;;5012860;28;20109;-74
2023/07/03 04:55:12;;;;;;;5.53;2.08;;;22.30;47.60;;;;;;5013126;28;20106;-74
2023/07/03 04:57:38;;;;;;;4.72;1.80;;;22.30;47.70;;;;;;5012940;28;20030;-74
2023/07/03 05:00:16;;;;;;;4.70;2.08;;;22.30;47.50;;;;;;5012750;28;20022;-74
2023/07/03 05:02:46;;;;;;;5.40;1.98;;;22.30;47.60;;;;;;5012739;28;20018;-74
2023/07/03 05:05:13;;;;;;;6.03;1.92;;;22.30;47.60;;;;;;5013136;28;20401;-77
2023/07/03 05:07:41;;;;;;;4.05;1.77;;;22.30;47.60;;;;;;5012780;28;20488;-77
2023/07/03 05:10:09;;;;;;;3.58;1.40;;;22.30;47.60;;;;;;5012654;28;20029;-77
2023/07/03 05:12:35;;;;;;;4.38;1.73;;;22.30;47.60;;;;;;5012898;28;20442;-77
2023/07/03 05:15:01;;;;;;;3.75;1.52;;;22.30;47.60;;;;;;5012580;28;20022;-72
2023/07/03 05:17:27;;;;;;;5.53;1.83;;;22.30;47.60;;;;;;5012769;28;20049;-73
2023/07/03 05:19:53;;;;;;;4.18;1.40;;;22.30;47.50;;;;;;5014248;28;20448;-73
2023/07/03 05:22:19;;;;;;;5.50;1.83;;;22.20;47.50;;;;;;5012987;28;20049;-73
2023/07/03 05:24:44;;;;;;;5.57;1.77;;;22.30;47.60;;;;;;5012227;28;20022;-74
2023/07/03 05:27:10;;;;;;;3.92;1.58;;;22.30;47.60;;;;;;5012259;28;20030;-74
2023/07/03 05:29:36;;;;;;;3.40;1.73;;;22.30;47.60;;;;;;5010860;28;20038;-74
2023/07/03 05:32:02;;;;;;;3.88;1.60;;;22.30;47.60;;;;;;5012804;28;20057;-79
2023/07/03 05:34:28;;;;;;;4.65;1.80;;;22.30;47.60;;;;;;5012416;28;20528;-79
2023/07/03 05:36:54;;;;;;;9.45;2.00;;;22.20;47.60;;;;;;5012158;28;20105;-78
2023/07/03 05:39:20;;;;;;;4.65;1.70;;;22.20;47.60;;;;;;5012185;28;20096;-80
2023/07/03 05:41:46;;;;;;;3.70;1.52;;;22.20;47.60;;;;;;5012292;28;20017;-79
2023/07/03 05:44:12;;;;;;;2.60;1.42;;;22.20;47.60;;;;;;5012414;28;20030;-74
2023/07/03 05:46:38;;;;;;;5.05;1.75;;;22.20;47.60;;;;;;5012065;28;20036;-74
2023/07/03 05:49:04;;;;;;;3.75;1.48;;;22.20;47.60;;;;;;5011685;28;20050;-73
2023/07/03 05:51:30;;;;;;;4.22;1.42;;;22.20;47.60;;;;;;5012151;28;20030;-72
2023/07/03 05:53:56;;;;;;;6.35;1.88;;;22.20;47.60;;;;;;5012136;28;20431;-73
2023/07/03 05:56:22;;;;;;;4.03;1.50;;;22.20;47.70;;;;;;5012079;28;20121;-73
2023/07/03 05:58:48;;;;;;;2.90;1.30;;;22.20;47.60;;;;;;5012202;28;20468;-73
2023/07/03 06:01:14;;;;;;;3.47;1.58;;;22.50;65.40;;;;;;5012633;28;20092;-77
2023/07/03 06:03:42;;;;;;;4.72;1.55;;;22.20;47.60;;;;;;5012278;28;20044;-77
2023/07/03 06:06:08;;;;;;;2.90;1.52;;;22.20;47.60;;;;;;5012133;28;20044;-77
2023/07/03 06:08:34;;;;;;;5.22;1.85;;;22.20;47.60;;;;;;5012226;28;20029;-77
2023/07/03 06:11:00;;;;;;;4.85;1.50;;;22.20;47.70;;;;;;5012308;28;20445;-77
2023/07/03 06:13:27;;;;;;;3.67;1.40;;;22.20;47.60;;;;;;5012164;28;20026;-73
2023/07/03 06:15:53;;;;;;;4.82;1.80;;;22.20;47.70;;;;;;5011919;28;20152;-72
2023/07/03 06:18:19;;;;;;;4.40;1.27;;;22.20;47.70;;;;;;5011745;28;20040;-72
2023/07/03 06:20:45;;;;;;;2.70;1.42;;;22.20;47.60;;;;;;5011627;28;20094;-73
2023/07/03 06:23:11;;;;;;;4.35;1.30;;;22.20;47.60;;;;;;5011923;28;20036;-73
2023/07/03 06:25:37;;;;;;;3.08;1.40;;;22.20;47.70;;;;;;5011668;28;20383;-74
2023/07/03 06:28:03;;;;;;;4.70;1.50;;;22.20;47.70;;;;;;5011716;28;20026;-73
2023/07/03 06:30:29;;;;;;;3.45;1.08;;;22.20;47.70;;;;;;5012299;28;20364;-72
2023/07/03 06:32:55;;;;;;;4.22;1.52;;;22.20;47.70;;;;;;5011962;28;20487;-72
2023/07/03 06:35:21;;;;;;;5.30;1.40;;;22.10;47.60;;;;;;5015330;28;20026;-74
2023/07/03 06:37:47;;;;;;;3.97;1.42;;;22.10;47.60;;;;;;5015581;28;20443;-74
2023/07/03 06:40:15;;;;;;;3.58;1.50;;;22.10;47.60;;;;;;5015699;28;20026;-76
2023/07/03 06:42:42;;;;;;;4.88;1.42;;;22.10;47.60;;;;;;5015562;28;20108;-76
2023/07/03 06:45:09;;;;;;;5.32;1.65;;;22.10;47.60;;;;;;5015300;28;20498;-75
2023/07/03 06:47:35;;;;;;;3.03;1.20;;;22.10;47.50;;;;;;5015620;28;20045;-81
2023/07/03 06:50:01;;;;;;;3.85;1.58;;;22.10;47.70;;;;;;5015478;28;20542;-76
2023/07/03 06:52:27;;;;;;;5.25;1.45;;;22.10;47.60;;;;;;5015508;28;20068;-77
2023/07/03 06:54:53;;;;;;;4.53;1.23;;;22.10;47.60;;;;;;5015305;28;20033;-77
2023/07/03 06:57:19;;;;;;;4.90;1.15;;;22.10;47.50;;;;;;5015475;28;20045;-72
2023/07/03 06:59:45;;;;;;;4.70;1.40;;;22.10;47.50;;;;;;5014821;28;20464;-72
2023/07/03 07:02:11;;;;;;;4.93;1.25;;;22.10;47.50;;;;;;5015107;28;20216;-73
2023/07/03 07:04:37;;;;;;;3.90;1.27;;;22.10;47.50;;;;;;5014878;28;20406;-72
2023/07/03 07:07:03;;;;;;;5.22;1.25;;;22.10;47.50;;;;;;5015084;28;20057;-74
2023/07/03 07:09:29;;;;;;;6.18;1.27;;;22.10;47.50;;;;;;5015122;28;20026;-76
2023/07/03 07:11:55;;;;;;;5.88;1.30;;;22.20;47.50;;;;;;5015230;28;20048;-76
2023/07/03 07:14:21;;;;;;;4.05;1.33;;;22.20;47.50;;;;;;5014559;28;20025;-76
2023/07/03 07:16:48;;;;;;;6.55;1.48;;;22.10;47.50;;;;;;5014980;28;20092;-77
2023/07/03 07:19:14;;;;;;;4.18;1.38;;;22.20;47.60;;;;;;5013769;28;20400;-75
2023/07/03 07:21:43;;;;;;;3.80;1.27;;;22.20;47.50;;;;;;4997100;28;20479;-76
2023/07/03 07:24:28;;;;;;;4.03;1.30;;;22.10;47.60;;;;;;4998522;28;20116;-77
2023/07/03 07:26:54;;;;;;;2.55;1.00;;;22.20;47.60;;;;;;4997990;28;20443;-77
2023/07/03 07:29:22;;;;;;;4.85;1.30;;;22.20;47.50;;;;;;5000792;28;20026;-77
2023/07/03 07:31:48;;;;;;;4.40;1.60;;;22.20;47.50;;;;;;5013897;28;20042;-76
2023/07/03 07:34:14;;;;;;;4.28;1.50;;;22.20;47.70;;;;;;5014640;28;20018;-78
2023/07/03 07:36:40;;;;;;;5.15;1.52;;;22.20;47.80;;;;;;5014385;28;20338;-75
2023/07/03 07:39:07;;;;;;;4.75;1.33;;;22.20;47.90;;;;;;5014549;28;20026;-73
2023/07/03 07:41:33;;;;;;;5.63;1.85;;;22.30;48.00;;;;;;5014118;28;20030;-73
2023/07/03 07:44:00;;;;;;;4.55;1.70;;;22.20;48.10;;;;;;5014341;28;20396;-73
2023/07/03 07:46:31;;;;;;;8.15;1.95;;;22.20;48.10;;;;;;5013874;28;20085;-72
2023/07/03 07:48:59;;;;;;;5.50;1.70;;;22.30;48.40;;;;;;5014223;28;20022;-72
2023/07/03 07:51:26;;;;;;;8.45;1.90;;;22.30;48.30;;;;;;5014217;28;20022;-71
2023/07/03 07:53:53;;;;;;;5.30;1.67;;;22.30;48.50;;;;;;5014118;28;20032;-72
2023/07/03 07:56:20;;;;;;;6.10;2.30;;;22.30;49.10;;;;;;5014265;28;20032;-75
2023/07/03 07:58:46;;;;;;;7.40;2.10;;;22.30;48.50;;;;;;5013818;28;20041;-74
2023/07/03 08:01:16;;;;;;;8.77;2.17;;;22.50;65.80;;;;;;5013686;28;20041;-73
2023/07/03 08:03:43;;;;;;;5.53;1.60;;;22.30;48.40;;;;;;5013719;28;20029;-74
2023/07/03 08:06:10;;;;;;;8.98;2.28;;;22.30;48.30;;;;;;5013980;28;20017;-74
2023/07/03 08:08:36;;;;;;;7.05;1.90;;;22.30;48.20;;;;;;5013660;28;20021;-72
2023/07/03 08:11:04;;;;;;;8.05;2.08;;;22.30;47.80;;;;;;5013642;28;20132;-76
2023/07/03 08:13:32;;;;;;;11.00;2.38;;;22.30;48.30;;;;;;5013913;28;20018;-77
2023/07/03 08:15:58;;;;;;;7.05;2.13;;;22.20;48.50;;;;;;5013625;28;20121;-75
2023/07/03 08:18:24;;;;;;;7.40;1.88;;;22.30;48.60;;;;;;5013545;28;20049;-75
2023/07/03 08:20:50;;;;;;;9.07;1.90;;;22.30;48.60;;;;;;5013448;28;20024;-77
2023/07/03 08:23:17;;;;;;;7.03;2.53;;;22.30;48.50;;;;;;5014132;28;20030;-72
2023/07/03 08:25:43;;;;;;;5.20;1.70;;;22.30;48.60;;;;;;5013685;28;20415;-72
2023/07/03 08:28:09;;;;;;;9.95;2.63;;;22.30;48.60;;;;;;5013263;28;20030;-73
2023/07/03 08:30:36;;;;;;;9.18;2.33;;;22.30;48.60;;;;;;5013175;28;20476;-72
2023/07/03 08:33:02;;;;;;;9.20;2.08;;;22.30;48.70;;;;;;5013153;28;20503;-69
2023/07/03 08:35:28;;;;;;;6.80;2.10;;;22.30;48.80;;;;;;5013123;28;20037;-70
2023/07/03 08:37:54;;;;;;;10.00;2.30;;;22.30;48.70;;;;;;5012832;28;20045;-71
2023/07/03 08:40:22;;;;;;;7.68;2.33;;;22.30;48.90;;;;;;5013212;28;20152;-71
2023/07/03 08:42:53;;;;;;;10.57;2.58;;;22.10;49.40;;;;;;5011506;28;20040;-71
2023/07/03 08:45:22;;;;;;;8.45;2.88;;;22.30;49.00;;;;;;5012922;28;20021;-72
2023/07/03 08:47:51;;;;;;;8.98;2.25;;;22.30;49.20;;;;;;5011691;28;20036;-72
2023/07/03 08:50:20;;;;;;;11.35;2.22;;;22.30;49.20;;;;;;5013155;28;20018;-73
2023/07/03 08:52:53;;;;;;;8.05;2.15;;;22.30;49.30;;;;;;5013166;28;20017;-73
2023/07/03 08:55:23;;;;;;;11.05;2.60;;;22.30;49.20;;;;;;5011280;28;20026;-70
2023/07/03 08:57:50;;;;;;;7.82;2.17;;;22.30;49.20;;;;;;5012759;28;20044;-70
2023/07/03 09:00:16;;;;;;;8.30;2.30;;;22.30;49.10;;;;;;5012948;28;20037;-70
2023/07/03 09:03:22;;;;;;;9.40;2.67;;;22.30;49.00;;;;;;5012775;28;20369;-70
2023/07/03 09:06:16;;;;;;;12.18;2.28;;;22.30;49.10;;;;;;5012473;28;20034;-70
2023/07/03 09:09:07;;;;;;;10.65;2.67;;;22.30;49.00;;;;;;5012575;28;20500;-70
2023/07/03 09:11:38;;;;;;;6.97;2.05;;;22.30;49.10;;;;;;5012641;28;20515;-70
2023/07/03 09:14:07;;;;;;;6.85;1.90;;;22.30;48.90;;;;;;5012550;28;20425;-70
2023/07/03 09:16:34;;;;;;;6.82;2.25;;;22.30;49.00;;;;;;5012518;28;20147;-70
2023/07/03 09:19:08;;;;;;;8.10;2.22;;;22.30;48.90;;;;;;5012139;28;20058;-69
2023/07/03 09:21:36;;;;;;;11.57;1.95;;;22.30;48.90;;;;;;5012428;28;20033;-71
2023/07/03 09:24:14;;;;;;;6.60;1.98;;;22.40;49.00;;;;;;5012043;28;20014;-70
2023/07/03 09:27:05;;;;;;;7.55;2.17;;;22.30;49.00;;;;;;5011984;28;20038;-70
2023/07/03 09:29:34;;;;;;;7.00;1.95;;;22.40;49.20;;;;;;5012302;28;20026;-76
2023/07/03 09:32:00;;;;;;;4.90;1.58;;;22.40;49.00;;;;;;5012241;28;20078;-77
2023/07/03 09:34:26;;;;;;;8.68;2.00;;;22.40;49.00;;;;;;5012285;28;20499;-77
2023/07/03 09:37:03;;;;;;;6.05;1.75;;;22.40;49.00;;;;;;5012349;28;20483;-77
2023/07/03 09:39:31;;;;;;;7.88;2.13;;;22.40;49.10;;;;;;5012317;28;20046;-76
2023/07/03 09:42:07;;;;;;;6.80;1.80;;;22.40;49.10;;;;;;5012346;28;20033;-77
2023/07/03 09:44:41;;;;;;;6.00;2.20;;;22.40;49.10;;;;;;5012357;28;20451;-77
2023/07/03 09:47:25;;;;;;;5.55;2.00;;;22.40;49.10;;;;;;5012052;28;20022;-78
2023/07/03 09:49:51;;;;;;;8.82;1.98;;;22.40;49.10;;;;;;5011940;28;20026;-70
2023/07/03 09:52:18;;;;;;;6.22;1.70;;;22.40;49.10;;;;;;5011700;28;20026;-70
2023/07/03 09:54:47;;;;;;;6.32;1.90;;;22.40;49.10;;;;;;5011205;28;20033;-69
2023/07/03 09:57:26;;;;;;;9.98;2.40;;;22.40;49.00;;;;;;5011549;28;20110;-70
2023/07/03 09:59:53;;;;;;;;;;;22.40;49.00;;;;;;5012410;28;20167;-71
2023/07/03 10:02:23;;;;;;;7.05;2.15;;;22.50;49.00;;;;;;5011547;28;19920;-70
2023/07/03 10:04:49;;;;;;;5.25;1.67;;;22.50;49.00;;;;;;5011575;28;20064;-70
2023/07/03 10:07:17;;;;;;;5.53;1.80;;;22.50;48.80;;;;;;5012434;28;20384;-80
2023/07/03 10:09:44;;;;;;;5.15;1.75;;;22.50;48.60;;;;;;5015920;28;20615;-82
2023/07/03 10:12:11;;;;;;;6.53;1.52;;;22.60;48.40;;;;;;5016450;28;20093;-79
2023/07/03 10:14:45;;;;;;;7.05;1.63;;;22.70;48.30;;;;;;5016094;28;20026;-77
2023/07/03 10:17:13;;;;;;;6.70;1.90;;;22.70;48.20;;;;;;5016257;28;20480;-80
2023/07/03 10:19:45;;;;;;;5.50;1.63;;;22.80;48.00;;;;;;5016028;28;20065;-79
2023/07/03 10:22:12;;;;;;;8.07;2.00;;;22.80;47.80;;;;;;5015738;28;20396;-74
2023/07/03 10:24:40;;;;;;;7.40;1.95;;;22.90;47.70;;;;;;5018776;28;20514;-82
2023/07/03 10:27:07;;;;;;;4.85;1.60;;;22.90;47.70;;;;;;5016167;28;20026;-86
2023/07/03 10:29:39;;;;;;;5.75;2.00;;;22.90;47.90;;;;;;5018680;28;20032;-78
2023/07/03 10:32:14;;;;;;;4.32;1.40;;;22.90;48.50;;;;;;5016237;28;20060;-79
2023/07/03 10:35:05;;;;;;;4.43;1.58;;;22.90;48.00;;;;;;5015818;28;20112;-79
2023/07/03 10:37:51;;;;;;;5.57;1.48;;;23.50;48.40;;;;;;5015828;28;20038;-80
2023/07/03 10:40:22;;;;;;;5.28;1.40;;;22.90;48.10;;;;;;5016050;28;20024;-78
2023/07/03 10:42:56;;;;;;;6.07;1.45;;;22.90;48.00;;;;;;5016193;28;20480;-78
2023/07/03 10:45:24;;;;;;;7.32;1.60;;;22.90;48.10;;;;;;5015723;28;20560;-77
2023/07/03 10:48:01;;;;;;;6.03;1.45;;;23.00;48.20;;;;;;5015783;28;20451;-81
2023/07/03 10:50:52;;;;;;;7.47;1.40;;;23.00;48.00;;;;;;5015547;28;20021;-83
2023/07/03 10:53:36;;;;;;;;;;;23.00;48.00;;;;;;5016265;28;20018;-82
2023/07/03 10:56:10;;;;;;;5.95;1.65;;;23.10;47.80;;;;;;5015632;28;19905;-82
2023/07/03 10:59:08;;;;;;;5.07;1.42;;;23.10;47.70;;;;;;5015463;28;20094;-82
2023/07/03 11:02:08;;;;;;;3.63;1.35;;;23.10;47.60;;;;;;4961292;28;20057;-82
2023/07/03 11:04:37;;;;;;;5.10;1.27;;;23.20;47.60;;;;;;5015536;28;20054;-82
2023/07/03 11:07:19;;;;;;;5.50;1.42;;;23.20;47.60;;;;;;5015435;28;20026;-83
2023/07/03 11:10:11;;;;;;;2.72;1.10;;;23.20;47.60;;;;;;5015554;28;20476;-82
2023/07/03 11:12:47;;;;;;;5.00;1.15;;;23.20;47.30;;;;;;5015739;28;20029;-84
2023/07/03 11:15:28;;;;;;;3.58;1.10;;;23.40;47.20;;;;;;5015710;28;20073;-82
2023/07/03 11:18:07;;;;;;;5.72;1.35;;;23.40;47.10;;;;;;5015947;28;20049;-83
2023/07/03 11:20:40;;;;;;;1.88;1.05;;;23.40;46.80;;;;;;5015810;28;20075;-85
2023/07/03 11:23:22;;;;;;;2.95;0.93;;;23.40;46.80;;;;;;5016618;28;20076;-82
2023/07/03 11:25:53;;;;;;;4.55;1.13;;;23.50;46.60;;;;;;5016113;28;20101;-82
2023/07/03 11:28:40;;;;;;;4.47;1.13;;;23.40;46.70;;;;;;5015728;28;20033;-82
2023/07/03 11:31:07;;;;;;;4.82;1.38;;;23.40;46.50;;;;;;5015609;28;20087;-82
2023/07/03 11:33:34;;;;;;;3.35;1.15;;;23.50;46.60;;;;;;5014918;28;20029;-81
2023/07/03 11:36:01;;;;;;;3.92;1.17;;;23.50;46.50;;;;;;5015572;28;20040;-87
2023/07/03 11:38:28;;;;;;;5.07;1.65;;;23.40;46.40;;;;;;5015668;28;20512;-81
2023/07/03 11:40:54;;;;;;;2.95;1.00;;;23.50;46.60;;;;;;5014985;28;20029;-77
2023/07/03 11:43:32;;;;;;;4.60;0.98;;;23.50;46.40;;;;;;5014623;28;20053;-76
2023/07/03 11:45:58;;;;;;;4.07;1.00;;;23.60;46.20;;;;;;5014538;28;20109;-78
2023/07/03 11:48:45;;;;;;;3.30;0.90;;;23.60;45.70;;;;;;5014240;28;20038;-70
2023/07/03 11:51:14;;;;;;;2.70;0.90;;;23.60;46.00;;;;;;5013558;28;20482;-70
2023/07/03 11:53:52;;;;;;;3.90;1.17;;;23.70;46.00;;;;;;5013601;28;20091;-70
2023/07/03 11:56:35;;;;;;;6.40;1.13;;;23.60;45.90;;;;;;5013701;28;20022;-71
2023/07/03 11:59:23;;;;;;;5.55;0.98;;;23.60;45.50;;;;;;5013784;28;20037;-77
2023/07/03 12:01:50;;;;;;;4.00;0.70;;;23.60;45.90;;;;;;5014292;28;20387;-76
2023/07/03 12:04:48;;;;;;;3.50;0.65;;;23.70;45.60;;;;;;5013825;28;20061;-77
2023/07/03 12:07:21;;;;;;;2.55;0.90;;;23.70;45.60;;;;;;5013901;28;20037;-78
2023/07/03 12:09:49;;;;;;;2.90;1.00;;;23.70;45.60;;;;;;5013625;28;20034;-77
2023/07/03 12:12:20;;;;;;;5.07;1.08;;;23.70;45.70;;;;;;5014143;28;20025;-78
2023/07/03 12:14:56;;;;;;;2.60;0.82;;;23.70;45.40;;;;;;5013812;28;20511;-79
2023/07/03 12:17:25;;;;;;;4.70;0.85;;;23.80;45.70;;;;;;5013754;28;20092;-79
2023/07/03 12:20:12;;;;;;;3.25;1.02;;;23.80;45.50;;;;;;5013641;28;20029;-79
2023/07/03 12:22:50;;;;;;;2.45;0.70;;;23.80;45.40;;;;;;5013645;28;20073;-79
2023/07/03 12:25:20;;;;;;;1.98;0.80;;;23.80;45.60;;;;;;5013394;28;20022;-79
2023/07/03 12:27:47;;;;;;;4.30;1.55;;;23.80;45.10;;;;;;5013297;28;20364;-78
2023/07/03 12:30:28;;;;;;;5.20;1.00;;;23.80;45.30;;;;;;5012846;28;20033;-79
2023/07/03 12:32:55;;;;;;;3.92;1.00;;;23.80;45.30;;;;;;5013285;28;20071;-79
2023/07/03 12:35:26;;;;;;;4.10;0.70;;;23.90;45.30;;;;;;5012682;28;20033;-78
2023/07/03 12:37:58;;;;;;;3.42;0.63;;;24.00;45.00;;;;;;5012959;28;20034;-78
2023/07/03 12:40:25;;;;;;;3.85;0.70;;;24.00;45.00;;;;;;5013221;28;20536;-78
2023/07/03 12:42:52;;;;;;;4.38;0.85;;;24.00;44.70;;;;;;5013153;28;20026;-78
2023/07/03 12:45:29;;;;;;;1.77;0.50;;;23.90;43.90;;;;;;5013073;28;20692;-71
2023/07/03 12:48:06;;;;;;;4.45;0.80;;;23.90;43.90;;;;;;5012687;28;20030;-70
2023/07/03 12:50:35;;;;;;;6.18;1.15;;;23.90;43.50;;;;;;5012456;28;20033;-71
2023/07/03 12:53:04;;;;;;;2.08;0.40;;;23.80;44.50;;;;;;5012530;28;20473;-71
2023/07/03 12:55:34;;;;;;;2.92;0.70;;;23.80;43.70;;;;;;5012495;28;20037;-72
2023/07/03 12:58:00;;;;;;;3.55;0.73;;;23.70;44.60;;;;;;5012727;28;20036;-71
2023/07/03 13:00:31;;;;;;;3.88;1.17;;;23.70;44.80;;;;;;5012813;28;20033;-70
2023/07/03 13:02:57;;;;;;;;;;;23.80;44.80;;;;;;5013548;28;20380;-72